Time;durP1;ratioP1;P1;durP2;ratioP2;P2;SDS_P1;SDS_P2;PMS_P1;PMS_P2;Temp;Humidity;BMP_temperature;BMP_pressure;BME280_temperature;BME280_humidity;BME280_pressure;Samples;Min_cycle;Max_cycle;Signal;HPM_P1;HPM_P2
2023/01/13 08:14:06;;;;;;;17.85;2.10;;;;;;;;;;6045450;22;1535875;-70
2023/01/13 08:16:40;;;;;;;9.18;1.42;;;;;;;;;;6123002;23;20052;-71
2023/01/13 08:19:06;;;;;;;16.77;1.65;;;;;;;;;;6091816;23;20152;-76
2023/01/13 08:21:36;;;;;;;11.45;1.88;;;;;;;;;;6159519;23;20021;-74
2023/01/13 08:24:03;;;;;;;8.20;1.20;;;;;;;;;;6016418;23;20030;-75
2023/01/13 08:26:29;;;;;;;14.43;1.63;;;;;;;;;;6130961;23;20092;-79
2023/01/13 08:56:51;;;;;;;15.15;2.00;;;;;;;;;;6069195;22;1641020;-71
2023/01/13 09:02:47;;;;;;;9.60;1.67;;;;;;;;;;5982488;23;20158;-71
2023/01/13 09:05:24;;;;;;;14.85;1.80;;;;;;;;;;5894495;23;20037;-74
2023/01/13 09:07:59;;;;;;;17.88;2.55;;;;;;;;;;5976160;23;20030;-72
2023/01/13 09:35:06;;;;;;;10.05;1.90;;;;;;;;;;5030059;27;20414;-70
2023/01/13 09:37:37;;;;;;;16.67;2.10;;;;;;;;;;5008411;28;21079;-70
2023/01/13 09:40:07;;;;;;;17.03;2.43;;;;;;;;;;5003061;28;20061;-69
2023/01/13 09:51:02;;;;;;;9.18;1.60;;;;;;;;;;5063661;27;20495;-72
2023/01/13 09:54:11;;;;;;;10.82;1.80;;;;;;;;;;4997275;28;20166;-71
2023/01/13 09:56:47;;;;;;;12.55;1.70;;;;;;;;;;4992473;28;20052;-71
2023/01/13 09:59:57;;;;;;;16.23;1.73;;;;;;;;;;5003284;28;20053;-71
2023/01/13 10:06:26;;;;;;;13.60;1.75;;;;;;;;;;4940747;28;20134;-72
2023/01/13 10:09:19;;;;;;;11.60;1.92;;;;;;;;;;4926096;28;20043;-72
2023/01/13 10:14:54;;;;;;;9.20;2.08;;;;;;;;;;4934947;28;20062;-71
2023/01/13 10:17:32;;;;;;;12.18;1.65;;;;;;;;;;4930479;28;20057;-74
2023/01/13 10:20:23;;;;;;;10.50;1.67;;;;;;;;;;4975032;28;20105;-73
2023/01/13 10:27:09;;;;;;;12.95;1.90;;;;;;;;;;4997783;27;20425;-71
2023/01/13 10:29:45;;;;;;;13.60;1.48;;;;;;;;;;4923792;28;20142;-71
2023/01/13 10:37:08;;;;;;;14.60;1.88;;;;;;;;;;4857482;28;20295;-70
2023/01/13 10:39:39;;;;;;;17.80;2.25;;;;;;;;;;4918542;28;20185;-70
2023/01/13 10:42:13;;;;;;;11.13;1.70;;;;;;;;;;4965240;28;20091;-70
2023/01/13 10:44:48;;;;;;;12.88;1.80;;;;;;;;;;4931895;28;20151;-71
2023/01/13 10:47:24;;;;;;;10.70;1.55;;;;;;;;;;4934825;28;20046;-71
2023/01/13 10:50:09;;;;;;;13.77;2.10;;;;;;;;;;4979106;28;20376;-70
2023/01/13 10:52:41;;;;;;;13.02;2.20;;;;;;;;;;4951380;28;20045;-71
2023/01/13 10:55:25;;;;;;;8.20;1.35;;;;;;;;;;4926559;28;20051;-70
2023/01/13 10:57:55;;;;;;;8.48;1.33;;;;;;;;;;4925236;28;20058;-70
2023/01/13 11:00:34;;;;;;;12.50;1.63;;;;;;;;;;4912493;28;20051;-72
2023/01/13 11:03:21;;;;;;;9.38;1.35;;;;;;;;;;4940305;28;20055;-72
2023/01/13 11:14:31;;;;;;;11.13;1.70;;;;;;;;;;4993989;28;20494;-71
2023/01/13 11:31:29;;;;;;;14.27;1.83;;;;;;;;;;5028384;27;20768;-70
2023/01/13 11:34:09;;;;;;;11.30;1.98;;;;;;;;;;4998127;28;20051;-71
2023/01/13 11:36:40;;;;;;;5.60;1.27;;;;;;;;;;4971830;28;20044;-70
2023/01/13 11:39:20;;;;;;;10.32;1.65;;;;;;;;;;5013214;28;20078;-70
2023/01/13 11:42:19;;;;;;;9.02;1.60;;;;;;;;;;5054269;28;20100;-71
2023/01/13 11:44:39;;;;;;;15.88;1.70;;;;;;;;;;5044211;28;20064;-69
2023/01/13 11:47:13;;;;;;;13.55;2.13;;;;;;;;;;5039391;28;20052;-71
2023/01/13 11:49:48;;;;;;;7.35;1.50;;;;;;;;;;5014735;28;20091;-71
2023/01/13 11:52:20;;;;;;;19.65;2.15;;;;;;;;;;5007165;28;20053;-73
2023/01/13 11:55:10;;;;;;;6.45;1.50;;;;;;;;;;5010017;28;20042;-72
2023/01/13 11:57:45;;;;;;;8.02;1.38;;;;;;;;;;4976106;28;20052;-72
2023/01/13 12:00:22;;;;;;;9.98;1.27;;;;;;;;;;4999416;28;20076;-72
2023/01/13 12:02:57;;;;;;;10.48;2.10;;;;;;;;;;5029864;28;20137;-72
2023/01/13 12:05:29;;;;;;;7.65;1.67;;;;;;;;;;5020535;28;20062;-70
2023/01/13 12:08:04;;;;;;;8.93;1.25;;;;;;;;;;5024756;28;20100;-71
2023/01/13 12:10:38;;;;;;;8.02;1.40;;;;;;;;;;5061901;28;20044;-71
2023/01/13 12:13:11;;;;;;;4.95;1.25;;;;;;;;;;5024665;28;20491;-71
2023/01/13 12:15:55;;;;;;;13.40;1.85;;;;;;;;;;4987301;28;20152;-71
2023/01/13 12:18:36;;;;;;;8.27;1.20;;;;;;;;;;5066895;28;20057;-71
2023/01/13 12:21:17;;;;;;;7.00;1.17;;;;;;;;;;5053563;28;20066;-71
2023/01/13 12:23:48;;;;;;;7.90;1.25;;;;;;;;;;5017927;28;20048;-71
2023/01/13 12:26:21;;;;;;;7.97;1.13;;;;;;;;;;5009710;28;20052;-71
2023/01/13 12:28:49;;;;;;;5.43;1.40;;;;;;;;;;5037880;28;20047;-70
2023/01/13 12:31:17;;;;;;;11.65;1.33;;;;;;;;;;5052757;28;20062;-71
2023/01/13 12:33:54;;;;;;;11.70;1.65;;;;;;;;;;5030593;28;20053;-72
2023/01/13 12:44:19;;;;;;;9.18;1.23;;;;;;;;;;5007816;27;20487;-72
2023/01/13 15:27:17;;;;;;;14.23;1.35;;;;;;;;;;6071182;22;1551693;-70
2023/01/13 15:29:53;;;;;;;4.90;1.00;;;;;;;;;;6086293;23;20025;-70
2023/01/13 15:32:20;;;;;;;9.55;1.45;;;;;;;;;;6073733;23;20033;-71
2023/01/13 15:34:49;;;;;;;9.98;1.27;;;;;;;;;;6095520;23;20087;-70
2023/01/13 15:37:18;;;;;;;;;;;;;;;;;;6031787;23;20033;-72
2023/01/13 15:39:45;;;;;;;10.20;1.48;;;;;;;;;;6090531;23;19947;-70
2023/01/13 15:47:47;;;;;;;6.80;1.52;;;;;;;;;;6036957;23;20212;-71
2023/01/13 15:50:16;;;;;;;8.75;1.48;;;;;;;;;;6078032;23;20121;-69
2023/01/13 15:52:43;;;;;;;6.50;1.30;;;;;;;;;;6084254;23;20036;-70
2023/01/13 15:55:09;;;;;;;9.00;1.48;;;;;;;;;;6117438;23;20096;-70
2023/01/13 15:57:40;;;;;;;5.40;1.27;;;;;;;;;;6091199;23;20033;-69
2023/01/13 16:00:19;;;;;;;15.15;2.45;;;;;;;;;;6081730;23;20127;-70
2023/01/13 16:02:45;;;;;;;8.07;1.60;;;;;;;;;;6123997;23;20031;-70
2023/01/13 16:05:17;;;;;;;10.73;1.67;;;;;;;;;;6082762;23;20075;-70
2023/01/13 16:07:44;;;;;;;8.23;1.50;;;;;;;;;;6108787;23;20044;-70
2023/01/13 16:10:15;;;;;;;11.30;1.88;;;;;;;;;;6110689;23;20071;-70
2023/01/13 16:12:42;;;;;;;7.78;1.08;;;;;;;;;;6123862;23;20025;-69
2023/01/13 16:15:14;;;;;;;10.35;1.50;;;;;;;;;;6103772;23;20093;-71
2023/01/13 16:17:44;;;;;;;7.80;1.40;;;;;;;;;;6087429;23;20108;-70
2023/01/13 16:20:14;;;;;;;13.30;2.95;;;;;;;;;;6143499;23;20035;-69
2023/01/13 16:22:41;;;;;;;10.80;1.80;;;;;;;;;;6121394;23;20272;-70
2023/01/13 16:25:10;;;;;;;9.90;1.63;;;;;;;;;;6109191;23;20024;-69
2023/01/13 16:27:40;;;;;;;10.43;1.63;;;;;;;;;;6120962;23;20165;-69
2023/01/13 16:30:07;;;;;;;8.52;1.75;;;;;;;;;;6126638;23;20029;-69
2023/01/13 16:32:36;;;;;;;12.90;1.58;;;;;;;;;;6127865;23;20096;-71
2023/01/13 16:35:02;;;;;;;10.30;2.10;;;;;;;;;;6122940;23;20029;-70
2023/01/13 16:37:29;;;;;;;9.93;1.77;;;;;;;;;;6086263;23;20357;-70
2023/01/13 16:39:55;;;;;;;4.82;1.20;;;;;;;;;;6108424;23;20433;-69
2023/01/13 16:42:28;;;;;;;14.35;1.75;;;;;;;;;;6141339;23;20025;-71
2023/01/13 16:44:54;;;;;;;5.45;1.58;;;;;;;;;;6136975;23;20052;-70
2023/01/13 16:47:21;;;;;;;8.27;2.15;;;;;;;;;;6125763;23;20121;-70
2023/01/13 16:49:49;;;;;;;8.57;1.40;;;;;;;;;;6148362;23;20031;-70
2023/01/13 16:52:16;;;;;;;12.65;1.98;;;;;;;;;;6144228;23;20127;-70
2023/01/13 16:54:42;;;;;;;5.68;1.40;;;;;;;;;;6126582;23;20293;-70
2023/01/13 16:57:11;;;;;;;12.98;1.48;;;;;;;;;;6138293;23;20052;-71
2023/01/13 16:59:37;;;;;;;10.25;1.50;;;;;;;;;;6133162;23;20351;-69
2023/01/13 17:02:05;;;;;;;11.13;1.70;;;;;;;;;;6139557;23;20025;-70
2023/01/13 17:04:31;;;;;;;7.32;1.65;;;;;;;;;;6119099;23;20039;-70
2023/01/13 17:07:00;;;;;;;10.73;1.52;;;;;;;;;;6124274;23;20052;-69
2023/01/13 17:09:32;;;;;;;;;;;;;;;;;;6129164;23;20020;-69
2023/01/13 17:12:01;;;;;;;8.52;1.52;;;;;;;;;;6128226;23;19924;-70
2023/01/13 17:14:27;;;;;;;8.20;1.55;;;;;;;;;;6160748;23;20103;-71
2023/01/13 17:16:57;;;;;;;9.45;2.00;;;;;;;;;;6104932;23;20021;-70
2023/01/13 17:19:46;;;;;;;12.32;1.67;;;;;;;;;;6073352;23;20029;-70
2023/01/13 17:22:32;;;;;;;14.15;1.65;;;;;;;;;;5980120;23;20342;-72
2023/01/13 17:27:29;;;;;;;14.43;1.88;;;;;;;;;;5935616;23;20069;-71
2023/01/13 17:29:57;;;;;;;9.15;1.60;;;;;;;;;;6066739;23;20026;-71
2023/01/13 17:32:31;;;;;;;8.43;1.70;;;;;;;;;;6097959;23;20029;-70
2023/01/13 17:35:00;;;;;;;9.48;1.58;;;;;;;;;;6107873;23;20091;-71
2023/01/13 17:37:28;;;;;;;4.90;1.10;;;;;;;;;;6082740;23;20029;-71
2023/01/13 17:39:55;;;;;;;5.75;0.93;;;;;;;;;;6112565;23;20041;-70
2023/01/13 17:42:23;;;;;;;8.90;1.50;;;;;;;;;;6113156;23;20101;-70
2023/01/13 17:44:56;;;;;;;5.05;1.40;;;;;;;;;;6096516;23;20029;-70
2023/01/13 17:47:27;;;;;;;7.95;1.20;;;;;;;;;;6081028;23;20029;-71
2023/01/13 17:50:00;;;;;;;5.47;1.10;;;;;;;;;;6094693;23;20033;-71
2023/01/13 17:52:35;;;;;;;8.82;1.33;;;;;;;;;;6098502;23;20021;-71
2023/01/13 17:57:50;;;;;;;2.80;0.90;;;;;;;;;;6088054;23;20029;-74
2023/01/13 18:00:25;;;;;;;5.28;1.17;;;;;;;;;;6093139;23;20025;-72
2023/01/13 18:02:53;;;;;;;3.75;1.02;;;;;;;;;;6066146;23;20548;-73
2023/01/13 18:05:20;;;;;;;6.10;1.25;;;;;;;;;;5908122;23;20100;-75
2023/01/13 18:07:52;;;;;;;5.72;1.10;;;;;;;;;;5896608;24;20028;-74
2023/01/13 22:34:15;;;;;;;11.10;1.40;;;;;;;;;;5993319;22;4490582;-71
2023/01/13 22:36:42;;;;;;;5.35;1.30;;;;;;;;;;5900996;23;20066;-73
2023/01/13 22:39:12;;;;;;;4.72;1.40;;;;;;;;;;5909146;23;20054;-72
2023/01/13 22:41:39;;;;;;;9.52;1.30;;;;;;;;;;6005006;23;20022;-72
2023/01/13 22:44:06;;;;;;;7.75;1.35;;;;;;;;;;6038201;23;20030;-71
2023/01/13 22:46:33;;;;;;;7.15;1.45;;;;;;;;;;6013620;23;20054;-72
2023/01/13 22:51:29;;;;;;;5.65;1.15;;;;;;;;;;5976817;23;20109;-72
2023/01/13 22:53:56;;;;;;;7.38;1.35;;;;;;;;;;5994594;23;20105;-72
2023/01/13 23:12:05;;;;;;;8.57;1.23;;;;;;;;;;6333094;21;1658173;-71
2023/01/13 23:14:32;;;;;;;8.63;1.17;;;;;;;;;;6132554;23;20025;-71
2023/01/13 23:16:59;;;;;;;7.30;1.23;;;;;;;;;;6115203;23;20021;-70
2023/01/13 23:19:31;;;;;;;5.53;1.10;;;;;;;;;;6038081;23;20105;-70
2023/01/13 23:22:34;;;;;;;8.65;1.35;;;;;;;;;;6148980;23;20024;-71
2023/01/13 23:25:04;;;;;;;7.25;1.15;;;;;;;;;;6045997;23;20235;-70
2023/01/13 23:27:33;;;;;;;8.32;1.05;;;;;;;;;;6096281;22;20288;-72
2023/01/13 23:30:04;;;;;;;6.68;1.35;;;;;;;;;;6173575;22;20031;-70
2023/01/13 23:32:34;;;;;;;6.55;0.98;;;;;;;;;;6163018;22;20348;-71
2023/01/13 23:35:04;;;;;;;6.43;1.38;;;;;;;;;;6211173;22;20048;-71
2023/01/13 23:37:33;;;;;;;8.15;1.20;;;;;;;;;;6178950;23;20089;-72
2023/01/13 23:44:54;;;;;;;4.28;1.13;;;;;;;;;;5922578;23;20091;-70
2023/01/13 23:47:21;;;;;;;7.45;1.45;;;;;;;;;;5992917;23;20036;-71
2023/01/13 23:49:51;;;;;;;7.22;1.40;;;;;;;;;;5962769;23;20066;-71
2023/01/13 23:52:21;;;;;;;3.72;1.10;;;;;;;;;;6038837;23;20026;-70
2023/01/13 23:54:47;;;;;;;7.05;0.90;;;;;;;;;;6131985;23;20070;-70
2023/01/13 23:57:16;;;;;;;7.18;1.10;;;;;;;;;;6142827;23;20485;-71
2023/01/13 23:59:43;;;;;;;9.70;1.60;;;;;;;;;;6094713;23;20047;-70
